createdAt,value
2022-08-10T00:01:54.321Z,98.00
2022-08-10T00:04:23.589Z,98.00
2022-08-10T00:06:53.517Z,98.00
2022-08-10T00:09:21.891Z,97.80
2022-08-10T00:11:49.503Z,97.80
2022-08-10T00:14:17.304Z,97.80
2022-08-10T00:16:45.143Z,97.80
2022-08-10T00:19:12.545Z,97.80
2022-08-10T00:21:44.029Z,97.60
2022-08-10T00:24:11.322Z,97.50
2022-08-10T00:27:50.160Z,97.60
2022-08-10T00:29:25.990Z,97.60
2022-08-10T00:31:57.794Z,97.50
2022-08-10T00:34:31.932Z,97.50
2022-08-10T00:37:00.505Z,97.50
2022-08-10T00:39:28.791Z,97.50
2022-08-10T00:42:07.680Z,97.40
2022-08-10T00:44:45.266Z,97.70
2022-08-10T00:47:36.287Z,97.70
2022-08-10T00:50:01.725Z,97.90
2022-08-10T00:52:30.325Z,97.70
2022-08-10T00:55:02.915Z,98.10
2022-08-10T00:57:31.319Z,98.00
2022-08-10T01:00:00.379Z,98.00
2022-08-10T01:02:30.391Z,98.00
2022-08-10T01:05:01.640Z,97.60
2022-08-10T01:07:56.686Z,97.90
2022-08-10T01:10:53.671Z,97.90
2022-08-10T01:14:06.427Z,97.70
2022-08-10T01:16:41.547Z,97.70
2022-08-10T01:19:38.454Z,97.60
2022-08-10T01:22:24.046Z,97.50
2022-08-10T01:25:02.773Z,97.60
2022-08-10T01:28:00.711Z,97.60
2022-08-10T01:30:31.746Z,97.50
2022-08-10T01:33:12.384Z,97.50
2022-08-10T01:35:54.340Z,97.50
2022-08-10T01:38:46.023Z,97.40
2022-08-10T01:41:26.745Z,97.40
2022-08-10T01:44:03.897Z,99.90
2022-08-10T01:46:33.740Z,99.90
2022-08-10T01:49:05.162Z,99.90
2022-08-10T01:51:39.337Z,99.90
2022-08-10T01:54:13.150Z,99.90
2022-08-10T01:56:43.994Z,97.30
2022-08-10T01:59:19.993Z,97.40
2022-08-10T02:02:03.950Z,97.40
2022-08-10T02:04:34.551Z,97.40
2022-08-10T02:07:02.950Z,97.30
2022-08-10T02:09:34.439Z,97.30
2022-08-10T02:12:08.589Z,97.30
2022-08-10T02:14:51.059Z,97.40
2022-08-10T02:17:58.664Z,97.30
2022-08-10T02:20:15.718Z,97.40
2022-08-10T02:22:45.779Z,97.40
2022-08-10T02:25:40.959Z,97.30
2022-08-10T02:28:05.204Z,97.40
2022-08-10T02:30:33.993Z,97.40
2022-08-10T02:33:02.195Z,97.40
2022-08-10T02:35:31.502Z,97.60
2022-08-10T02:38:14.454Z,97.60
2022-08-10T02:45:16.070Z,97.60
2022-08-10T02:45:23.751Z,97.50
2022-08-10T02:46:32.236Z,97.50
2022-08-10T02:49:05.475Z,97.60
2022-08-10T02:52:07.051Z,97.50
2022-08-10T02:54:37.489Z,97.50
2022-08-10T02:57:20.759Z,97.50
2022-08-10T02:59:54.532Z,97.60
2022-08-10T03:02:43.862Z,97.70
2022-08-10T03:05:16.169Z,97.60
2022-08-10T03:07:45.127Z,97.60
2022-08-10T03:10:31.180Z,97.70
2022-08-10T03:13:01.750Z,97.80
2022-08-10T03:18:03.271Z,97.60
2022-08-10T03:20:39.589Z,97.70
2022-08-10T03:23:15.145Z,97.70
2022-08-10T03:25:53.565Z,97.70
2022-08-10T03:28:28.387Z,97.80
2022-08-10T03:30:57.326Z,97.90
2022-08-10T03:33:28.611Z,97.80
2022-08-10T03:36:43.507Z,97.70
2022-08-10T03:38:48.793Z,97.90
2022-08-10T03:41:18.618Z,97.80
2022-08-10T03:43:49.748Z,97.90
2022-08-10T03:46:21.403Z,98.00
2022-08-10T03:48:52.771Z,97.90
2022-08-10T03:51:20.685Z,98.00
2022-08-10T03:54:03.518Z,98.20
2022-08-10T03:56:36.636Z,98.20
2022-08-10T03:59:05.581Z,98.10
2022-08-10T04:02:44.075Z,98.20
2022-08-10T04:04:24.744Z,98.40
2022-08-10T04:06:55.889Z,98.50
2022-08-10T04:09:43.061Z,98.30
2022-08-10T04:12:20.165Z,98.40
2022-08-10T04:14:51.327Z,98.50
2022-08-10T04:18:04.650Z,98.50
2022-08-10T04:20:26.319Z,98.50
2022-08-10T04:23:02.205Z,98.50
2022-08-10T04:25:30.701Z,98.40
2022-08-10T04:27:58.960Z,98.50
2022-08-10T04:30:27.873Z,98.50
2022-08-10T04:32:57.375Z,98.60
